Chacalluta Airport
SCAR : rendu visible

Aérodrome :











RETROUVEZ-NOUS SUR...

 
LOGIN :

S'inscrire | Disclaimer

   EN    FR    IT 

 









Légende :    VFR   VFR Marginal   IFR   IFR Intensif   IFR Très Intensif
Visi : 
Plafond : 
>= 8 km
>= 3000ft
5 à 8 km
1000 à 3000 ft
1500m à 5 km
500 à 1000 ft
800 à 1500m
200 à 500 ft
< 800m
< 200 ft
Symboles :   Orages  Brouillard  Fortes neiges  Fortes précipitations  Vent > 20 kt






- Altitude de l'aérodrome : 167 ft
- Code IATA : ARI


SCAR - Chacalluta

DERNIER METAR :
  • 270300Z 09004KT 9999 OVC019 18/14 Q1014

METARs EXPIRÉS :
  • 270200Z 09006KT 9999 OVC020 17/13 Q1014
  • 270100Z 11002KT CAVOK 16/12 Q1014

TAF TAF SCAR
Valide du 27 à 00h jusqu'au 28 à 00h UTC


262235Z 2700/2724 19004KT CAVOK TN15/2704Z TX20/2719Z
BECMG 2702/2704 33004KT OVC020
BECMG 2716/2718 22010KT CAVOK
FIR SCFZ / Amérique du Sud



MET'MAP, la Météo Aéronautique d'un coup d'oeil ! - Copyright ORBIFLY Décembre 2007 - Disclaimer

ORBIFLY MET'MAP TEAM :

Programmation & Développement : Alexandra Zaïnal
Sur une idée originale de : Baudouin d'Aumeries
Assistance à la programmation : Marc-Olivier Méhu
Soutien technique & logistique : Manuel Goepfert

Contact : metmap@orbifly.com




SOURCES & CREDITS :

   NOAA       Earth
Advisory